Time;durP1;ratioP1;P1;durP2;ratioP2;P2;SDS_P1;SDS_P2;PMS_P1;PMS_P2;Temp;Humidity;BMP_temperature;BMP_pressure;BME280_temperature;BME280_humidity;BME280_pressure;Samples;Min_cycle;Max_cycle;Signal;HPM_P1;HPM_P2
2022/07/02 00:00:51;;;;;;;2.10;0.50;;;20.30;54.90;;;;;;4875723;29;20191;-67
2022/07/02 00:03:23;;;;;;;0.50;0.43;;;20.30;55.30;;;;;;4880407;29;20286;-68
2022/07/02 00:05:56;;;;;;;0.40;0.40;;;20.40;55.20;;;;;;4879717;29;20183;-67
2022/07/02 00:08:26;;;;;;;0.40;0.20;;;20.40;55.20;;;;;;4863753;29;20287;-67
2022/07/02 00:10:54;;;;;;;0.60;0.60;;;20.30;54.40;;;;;;4870197;29;20224;-67
2022/07/02 00:13:21;;;;;;;0.40;0.40;;;20.30;54.30;;;;;;4863235;29;20192;-68
2022/07/02 00:15:47;;;;;;;0.80;0.43;;;20.30;54.40;;;;;;4865759;29;20188;-68
2022/07/02 00:18:14;;;;;;;1.50;0.50;;;20.20;54.50;;;;;;4892083;29;20192;-68
2022/07/02 00:20:42;;;;;;;1.33;0.40;;;20.00;54.60;;;;;;4866661;29;20460;-68
2022/07/02 00:23:08;;;;;;;2.10;0.43;;;20.00;54.80;;;;;;4848232;29;20227;-68
2022/07/02 00:25:42;;;;;;;0.30;0.30;;;19.90;54.80;;;;;;4880615;29;20215;-68
2022/07/02 00:28:11;;;;;;;0.67;0.40;;;19.90;54.60;;;;;;4889491;29;20247;-69
2022/07/02 00:30:39;;;;;;;0.90;0.50;;;19.80;54.80;;;;;;4902947;29;20204;-68
2022/07/02 00:33:06;;;;;;;1.77;0.40;;;19.90;54.30;;;;;;4886663;29;20191;-68
2022/07/02 00:35:33;;;;;;;1.07;0.50;;;19.80;54.30;;;;;;4872251;29;20192;-68
2022/07/02 00:38:01;;;;;;;0.30;0.30;;;19.90;54.60;;;;;;4870101;29;20192;-68
2022/07/02 00:40:30;;;;;;;0.80;0.50;;;19.80;54.40;;;;;;4878143;29;20187;-68
2022/07/02 00:42:56;;;;;;;0.53;0.30;;;19.80;54.20;;;;;;4887601;29;20261;-68
2022/07/02 00:45:23;;;;;;;0.40;0.40;;;19.90;54.30;;;;;;4869911;29;20196;-68
2022/07/02 00:47:50;;;;;;;0.80;0.40;;;19.80;53.90;;;;;;4873483;29;20195;-68
2022/07/02 00:50:15;;;;;;;1.40;0.30;;;19.80;54.10;;;;;;4870295;29;20234;-68
2022/07/02 00:52:41;;;;;;;1.80;0.47;;;19.80;54.40;;;;;;4868638;29;20192;-68
2022/07/02 00:55:07;;;;;;;2.37;0.37;;;19.80;54.60;;;;;;4853887;29;20195;-68
2022/07/02 00:57:36;;;;;;;0.50;0.50;;;19.70;54.30;;;;;;4855224;29;20196;-68
2022/07/02 01:00:02;;;;;;;0.47;0.33;;;19.70;54.20;;;;;;4867744;29;20204;-68
2022/07/02 01:02:30;;;;;;;1.10;0.50;;;19.80;54.60;;;;;;4902620;29;20193;-68
2022/07/02 01:04:57;;;;;;;0.60;0.33;;;19.80;54.40;;;;;;4865254;29;20211;-68
2022/07/02 01:07:24;;;;;;;0.67;0.40;;;19.80;53.70;;;;;;4855763;29;20195;-68
2022/07/02 01:12:38;;;;;;;0.50;0.47;;;19.80;53.60;;;;;;4902724;29;20240;-67
2022/07/02 01:15:04;;;;;;;1.10;0.57;;;19.70;54.10;;;;;;4876551;29;20192;-68
2022/07/02 01:17:30;;;;;;;1.43;0.60;;;19.70;53.70;;;;;;4886714;29;20188;-68
2022/07/02 01:19:55;;;;;;;0.30;0.30;;;19.60;53.50;;;;;;4887498;29;20195;-67
2022/07/02 01:22:38;;;;;;;0.40;0.40;;;19.50;53.90;;;;;;4852810;29;20204;-68
2022/07/02 01:25:06;;;;;;;0.67;0.30;;;19.50;53.80;;;;;;4856899;29;20199;-67
2022/07/02 01:27:32;;;;;;;0.40;0.40;;;19.50;53.40;;;;;;4867722;29;20232;-67
2022/07/02 01:29:57;;;;;;;0.47;0.33;;;19.50;53.70;;;;;;4885663;29;20211;-67
2022/07/02 01:32:23;;;;;;;0.33;0.30;;;19.50;53.90;;;;;;4880268;29;20188;-67
2022/07/02 01:34:51;;;;;;;0.47;0.30;;;19.50;53.40;;;;;;4851452;29;20193;-67
2022/07/02 01:37:19;;;;;;;0.30;0.30;;;19.50;53.50;;;;;;4883947;29;20271;-67
2022/07/02 01:39:46;;;;;;;0.93;0.70;;;19.40;53.50;;;;;;4868334;29;20203;-68
2022/07/02 01:42:13;;;;;;;0.53;0.40;;;19.40;53.60;;;;;;4867597;29;20196;-67
2022/07/02 01:44:39;;;;;;;0.50;0.27;;;19.40;53.70;;;;;;4863015;29;20320;-67
2022/07/02 01:47:07;;;;;;;0.33;0.33;;;19.50;53.40;;;;;;4867845;29;20207;-68
2022/07/02 01:49:34;;;;;;;0.50;0.50;;;19.50;53.40;;;;;;4881032;29;20212;-67
2022/07/02 01:51:59;;;;;;;1.37;0.27;;;19.50;53.20;;;;;;4851490;29;20202;-67
2022/07/02 01:54:25;;;;;;;0.50;0.37;;;19.40;53.80;;;;;;4864877;29;20193;-67
2022/07/02 01:56:51;;;;;;;0.30;0.30;;;19.50;53.20;;;;;;4864211;29;20188;-67
2022/07/02 01:59:16;;;;;;;0.67;0.50;;;19.50;53.40;;;;;;4893993;29;20187;-67
2022/07/02 02:01:43;;;;;;;0.53;0.50;;;19.50;54.00;;;;;;4881388;29;20188;-68
2022/07/02 02:04:09;;;;;;;1.50;0.40;;;19.50;53.10;;;;;;4878892;29;20331;-67
2022/07/02 02:06:36;;;;;;;0.87;0.33;;;19.40;53.20;;;;;;4880722;29;20184;-67
2022/07/02 02:09:03;;;;;;;0.60;0.60;;;19.40;53.30;;;;;;4883547;29;20211;-68
2022/07/02 02:11:29;;;;;;;0.40;0.40;;;19.50;53.80;;;;;;4878054;29;20209;-68
2022/07/02 02:13:57;;;;;;;1.20;0.30;;;19.40;53.90;;;;;;4859075;29;20196;-67
2022/07/02 02:16:30;;;;;;;2.53;0.30;;;19.40;53.70;;;;;;4867108;29;20202;-67
2022/07/02 02:18:58;;;;;;;0.30;0.30;;;19.30;53.80;;;;;;4855959;29;20200;-67
2022/07/02 02:21:25;;;;;;;0.50;0.50;;;19.30;54.30;;;;;;4864797;29;20201;-67
2022/07/02 02:23:51;;;;;;;0.50;0.40;;;19.30;54.70;;;;;;4880189;29;20223;-67
2022/07/02 02:26:17;;;;;;;0.50;0.37;;;19.30;53.70;;;;;;4866740;29;20196;-67
2022/07/02 02:28:43;;;;;;;0.30;0.30;;;19.30;54.60;;;;;;4862682;29;20208;-67
2022/07/02 02:31:08;;;;;;;0.40;0.40;;;19.30;55.30;;;;;;4852580;29;20216;-67
2022/07/02 02:33:34;;;;;;;0.87;0.40;;;19.30;54.70;;;;;;4840894;29;20280;-67
2022/07/02 02:36:00;;;;;;;0.60;0.30;;;19.30;54.50;;;;;;4848614;29;20250;-67
2022/07/02 02:38:26;;;;;;;0.37;0.37;;;19.30;54.90;;;;;;4856526;29;20220;-67
2022/07/02 02:40:52;;;;;;;1.83;0.43;;;19.30;55.10;;;;;;4849380;29;20207;-67
2022/07/02 02:43:17;;;;;;;1.10;0.70;;;19.30;55.40;;;;;;4863030;29;20291;-67
2022/07/02 02:45:43;;;;;;;0.30;0.30;;;19.20;54.50;;;;;;4848999;29;20200;-67
2022/07/02 02:48:09;;;;;;;0.47;0.47;;;19.20;54.10;;;;;;4856027;29;20193;-67
2022/07/02 02:50:34;;;;;;;0.43;0.37;;;19.20;54.00;;;;;;4830245;29;20228;-67
2022/07/02 02:53:00;;;;;;;0.60;0.37;;;19.20;54.90;;;;;;4850219;29;20253;-67
2022/07/02 02:55:26;;;;;;;0.43;0.40;;;19.20;54.80;;;;;;4844230;29;20202;-67
2022/07/02 02:57:52;;;;;;;0.60;0.30;;;19.20;54.70;;;;;;4846787;29;20275;-67
2022/07/02 03:00:17;;;;;;;0.53;0.40;;;19.20;53.90;;;;;;4851918;29;20192;-67
2022/07/02 03:02:43;;;;;;;0.30;0.30;;;19.20;53.20;;;;;;4833453;29;20245;-67
2022/07/02 03:05:09;;;;;;;1.60;0.50;;;19.30;52.40;;;;;;4860460;29;20201;-67
2022/07/02 03:07:35;;;;;;;0.40;0.40;;;19.20;52.70;;;;;;4863146;29;20280;-68
2022/07/02 03:10:00;;;;;;;2.43;0.80;;;19.30;53.00;;;;;;4843895;29;20217;-67
2022/07/02 03:12:26;;;;;;;0.33;0.33;;;19.20;52.40;;;;;;4857676;29;20188;-67
2022/07/02 03:14:52;;;;;;;0.30;0.30;;;19.10;53.30;;;;;;4847551;29;20192;-67
2022/07/02 03:17:17;;;;;;;0.50;0.40;;;19.20;52.80;;;;;;4853836;29;20200;-67
2022/07/02 03:19:44;;;;;;;0.90;0.30;;;19.10;53.20;;;;;;4855340;29;20205;-67
2022/07/02 03:22:10;;;;;;;0.37;0.27;;;19.10;53.20;;;;;;4848340;29;20340;-67
2022/07/02 03:24:35;;;;;;;0.60;0.40;;;19.20;53.80;;;;;;4844641;29;20284;-67
2022/07/02 03:27:01;;;;;;;0.33;0.33;;;19.20;53.60;;;;;;4832505;29;20247;-67
2022/07/02 03:29:27;;;;;;;0.40;0.40;;;19.10;53.90;;;;;;4846849;29;20253;-67
2022/07/02 03:31:52;;;;;;;0.30;0.27;;;19.10;53.10;;;;;;4853868;29;20189;-67
2022/07/02 03:34:18;;;;;;;1.83;0.50;;;19.10;53.20;;;;;;4847270;29;20267;-67
2022/07/02 03:36:44;;;;;;;0.90;0.50;;;19.10;52.00;;;;;;4846982;29;20328;-67
2022/07/02 03:39:09;;;;;;;0.77;0.60;;;19.20;52.30;;;;;;4846782;29;20192;-67
2022/07/02 03:41:35;;;;;;;0.83;0.40;;;19.10;51.90;;;;;;4848102;29;20345;-67
2022/07/02 03:44:00;;;;;;;1.70;0.30;;;19.10;52.70;;;;;;4830530;29;20246;-67
2022/07/02 03:46:26;;;;;;;0.30;0.30;;;19.00;53.30;;;;;;4831005;29;20213;-67
2022/07/02 03:48:52;;;;;;;0.70;0.50;;;19.10;53.30;;;;;;4828394;29;20193;-67
2022/07/02 03:51:17;;;;;;;1.13;0.60;;;19.20;53.40;;;;;;4856190;29;20432;-67
2022/07/02 03:53:43;;;;;;;0.50;0.50;;;19.30;54.60;;;;;;4847248;29;20276;-67
2022/07/02 03:56:09;;;;;;;0.60;0.50;;;19.20;55.50;;;;;;4830843;29;20237;-67
2022/07/02 03:58:34;;;;;;;0.50;0.50;;;19.30;55.50;;;;;;4846031;29;20257;-67
2022/07/02 04:01:00;;;;;;;0.40;0.40;;;19.30;56.90;;;;;;4845849;29;20207;-67
2022/07/02 04:03:25;;;;;;;0.30;0.30;;;19.30;57.10;;;;;;4846374;29;20332;-67
2022/07/02 04:05:51;;;;;;;0.47;0.30;;;19.30;57.70;;;;;;4830934;29;20196;-67
2022/07/02 04:08:17;;;;;;;0.87;0.70;;;19.20;58.50;;;;;;4831323;29;20200;-67
2022/07/02 04:10:43;;;;;;;0.53;0.53;;;19.20;59.10;;;;;;4846006;29;20216;-67
2022/07/02 04:13:10;;;;;;;0.50;0.43;;;19.20;59.40;;;;;;4862636;29;20430;-67
2022/07/02 04:15:35;;;;;;;0.40;0.40;;;19.10;59.60;;;;;;4844921;29;20190;-67
2022/07/02 04:18:01;;;;;;;0.70;0.40;;;19.00;60.30;;;;;;4831774;29;20199;-67
2022/07/02 04:20:27;;;;;;;0.50;0.50;;;19.00;60.80;;;;;;4846132;29;20196;-67
2022/07/02 04:22:53;;;;;;;0.60;0.50;;;18.80;60.00;;;;;;4864473;29;20202;-67
2022/07/02 04:25:19;;;;;;;1.60;0.60;;;18.80;61.60;;;;;;4843919;29;20290;-67
2022/07/02 04:27:44;;;;;;;0.50;0.50;;;18.80;61.10;;;;;;4857116;29;20326;-67
2022/07/02 04:30:11;;;;;;;0.53;0.50;;;18.90;61.80;;;;;;4850203;29;20273;-67
2022/07/02 04:32:36;;;;;;;0.83;0.60;;;18.90;62.20;;;;;;4880767;29;20192;-67
2022/07/02 04:35:03;;;;;;;0.57;0.50;;;18.90;62.80;;;;;;4865974;29;20202;-67
2022/07/02 04:37:29;;;;;;;1.60;0.50;;;18.90;62.70;;;;;;4879052;29;20271;-67
2022/07/02 04:39:54;;;;;;;0.40;0.40;;;18.90;63.10;;;;;;4864417;29;20284;-67
2022/07/02 04:42:20;;;;;;;1.40;0.60;;;18.80;63.60;;;;;;4864441;29;20201;-67
2022/07/02 04:44:45;;;;;;;0.93;0.47;;;18.80;63.70;;;;;;4863772;29;20202;-67
2022/07/02 04:47:11;;;;;;;0.83;0.83;;;18.80;64.10;;;;;;4852196;29;20196;-67
2022/07/02 04:49:37;;;;;;;2.33;0.90;;;18.80;63.70;;;;;;4847322;29;20212;-67
2022/07/02 04:52:03;;;;;;;1.20;0.60;;;18.80;63.30;;;;;;4889575;29;20302;-67
2022/07/02 04:54:29;;;;;;;0.60;0.60;;;18.80;64.90;;;;;;4897445;29;20236;-67
2022/07/02 04:56:55;;;;;;;0.70;0.70;;;18.80;65.10;;;;;;4864144;29;20286;-67
2022/07/02 04:59:20;;;;;;;2.43;0.70;;;18.90;65.00;;;;;;4879399;29;20225;-67
2022/07/02 05:01:46;;;;;;;0.60;0.60;;;18.90;65.00;;;;;;4860452;29;20205;-67
2022/07/02 05:04:12;;;;;;;2.27;0.90;;;18.80;66.10;;;;;;4854602;29;20216;-67
2022/07/02 05:06:37;;;;;;;1.50;0.60;;;18.90;65.60;;;;;;4845158;29;20200;-66
2022/07/02 05:09:04;;;;;;;2.63;0.73;;;18.90;65.90;;;;;;4845498;29;20196;-65
2022/07/02 05:11:30;;;;;;;2.07;0.67;;;19.00;66.20;;;;;;4879128;29;20220;-66
2022/07/02 05:13:56;;;;;;;1.03;0.90;;;19.00;66.50;;;;;;4857632;29;20325;-66
2022/07/02 05:16:21;;;;;;;0.67;0.67;;;19.00;66.70;;;;;;4870614;29;20291;-65
2022/07/02 05:18:47;;;;;;;1.03;0.87;;;19.00;67.00;;;;;;4865559;29;20193;-66
2022/07/02 05:21:13;;;;;;;0.90;0.73;;;19.00;67.20;;;;;;4859443;29;20207;-66
2022/07/02 05:23:39;;;;;;;0.47;0.47;;;19.00;67.40;;;;;;4877722;29;20196;-67
2022/07/02 05:26:05;;;;;;;1.20;1.10;;;19.00;66.50;;;;;;4846774;29;20200;-64
2022/07/02 05:28:30;;;;;;;0.83;0.70;;;19.20;66.10;;;;;;4868070;29;20246;-65
2022/07/02 05:30:56;;;;;;;0.60;0.60;;;19.20;66.50;;;;;;4852912;29;20219;-64
2022/07/02 05:33:22;;;;;;;0.87;0.80;;;19.20;62.10;;;;;;4851992;29;20192;-64
2022/07/02 05:35:48;;;;;;;0.67;0.30;;;19.30;55.40;;;;;;4851792;29;20267;-65
2022/07/02 05:38:14;;;;;;;0.50;0.40;;;19.30;57.10;;;;;;4868450;29;20192;-64
2022/07/02 05:40:40;;;;;;;0.73;0.50;;;19.40;56.60;;;;;;4852970;29;20200;-64
2022/07/02 05:43:05;;;;;;;1.07;0.67;;;19.40;59.40;;;;;;4865726;29;20207;-64
2022/07/02 05:45:31;;;;;;;1.23;0.60;;;19.50;60.40;;;;;;4843106;29;20208;-64
2022/07/02 05:47:57;;;;;;;0.97;0.60;;;19.50;61.50;;;;;;4889400;29;20193;-63
2022/07/02 05:50:23;;;;;;;0.43;0.43;;;19.50;61.20;;;;;;4858126;29;20228;-64
2022/07/02 05:52:48;;;;;;;2.60;1.07;;;19.50;64.00;;;;;;4877376;29;20196;-64
2022/07/02 05:55:14;;;;;;;0.90;0.73;;;19.50;64.30;;;;;;4859600;29;20217;-63
2022/07/02 05:57:40;;;;;;;1.37;0.60;;;19.50;62.90;;;;;;4866352;29;20191;-64
2022/07/02 06:00:08;;;;;;;0.63;0.63;;;19.50;63.30;;;;;;4846468;29;20227;-64
2022/07/02 06:02:34;;;;;;;0.60;0.60;;;19.50;64.40;;;;;;4868911;29;20204;-64
2022/07/02 06:07:38;;;;;;;0.50;0.50;;;19.60;64.20;;;;;;4878211;29;20207;-64
2022/07/02 06:07:46;;;;;;;0.87;0.63;;;19.70;63.10;;;;;;4876687;29;20208;-63
2022/07/02 06:10:18;;;;;;;0.60;0.60;;;19.60;61.30;;;;;;4856593;29;20247;-63
2022/07/02 06:12:47;;;;;;;1.37;0.63;;;19.70;61.20;;;;;;4867992;29;20188;-63
2022/07/02 06:15:13;;;;;;;2.33;1.10;;;19.70;61.40;;;;;;4867908;29;20199;-62
2022/07/02 06:17:39;;;;;;;0.60;0.50;;;19.70;62.60;;;;;;4882499;29;20198;-63
2022/07/02 06:20:05;;;;;;;1.07;0.80;;;19.70;63.40;;;;;;4866272;29;20200;-64
2022/07/02 06:22:30;;;;;;;1.30;0.70;;;19.70;63.20;;;;;;4852050;29;20230;-62
2022/07/02 06:24:57;;;;;;;2.50;0.70;;;19.70;64.30;;;;;;4847920;29;20406;-63
2022/07/02 06:27:22;;;;;;;0.70;0.70;;;19.80;64.00;;;;;;4866229;29;20287;-63
2022/07/02 06:29:48;;;;;;;1.30;0.90;;;19.80;64.70;;;;;;4879336;29;20212;-63
2022/07/02 06:32:18;;;;;;;1.73;0.90;;;19.80;63.30;;;;;;4873206;29;20180;-64
2022/07/02 06:34:44;;;;;;;0.80;0.80;;;19.80;63.60;;;;;;4865243;29;20291;-63
2022/07/02 06:37:10;;;;;;;1.50;1.03;;;19.80;63.60;;;;;;4879096;29;20279;-64
2022/07/02 06:39:37;;;;;;;1.33;0.90;;;19.80;63.90;;;;;;4864356;29;20188;-64
2022/07/02 06:44:49;;;;;;;1.83;0.63;;;19.90;63.70;;;;;;4862099;29;20187;-64
2022/07/02 06:47:15;;;;;;;0.80;0.80;;;19.90;62.20;;;;;;4876054;29;20192;-64
2022/07/02 06:49:42;;;;;;;1.27;0.67;;;19.90;61.70;;;;;;4875816;29;20191;-64
2022/07/02 06:52:08;;;;;;;1.47;0.90;;;20.00;62.40;;;;;;4882654;29;20192;-64
2022/07/02 06:54:34;;;;;;;2.00;0.97;;;20.00;63.10;;;;;;4878689;29;20189;-65
2022/07/02 06:57:00;;;;;;;1.03;0.50;;;20.10;62.90;;;;;;4859053;29;20196;-64
2022/07/02 06:59:25;;;;;;;0.70;0.70;;;20.00;60.00;;;;;;4895984;29;20203;-64
2022/07/02 07:01:51;;;;;;;0.73;0.70;;;20.10;59.90;;;;;;4841283;29;20185;-64
2022/07/02 07:04:17;;;;;;;0.60;0.60;;;20.20;60.30;;;;;;4871404;29;20191;-65
2022/07/02 07:06:52;;;;;;;2.67;0.90;;;20.20;60.30;;;;;;4863951;29;20194;-65
2022/07/02 07:09:18;;;;;;;1.63;0.70;;;20.20;60.10;;;;;;4882363;29;20199;-67
2022/07/02 07:11:44;;;;;;;0.70;0.70;;;20.30;60.60;;;;;;4869447;29;20241;-68
2022/07/02 07:14:10;;;;;;;1.43;0.80;;;20.30;61.20;;;;;;4863400;29;20188;-68
2022/07/02 07:16:36;;;;;;;0.90;0.60;;;20.30;59.90;;;;;;4860227;29;20196;-65
2022/07/02 07:19:04;;;;;;;0.70;0.70;;;20.30;60.00;;;;;;4878146;29;20196;-68
2022/07/02 07:21:30;;;;;;;0.70;0.70;;;20.30;60.40;;;;;;4881039;29;20286;-68
2022/07/02 07:23:56;;;;;;;0.73;0.73;;;20.40;63.40;;;;;;4873596;29;20238;-68
2022/07/02 07:26:22;;;;;;;0.80;0.70;;;20.40;63.20;;;;;;4854528;29;20220;-68
2022/07/02 07:28:48;;;;;;;0.97;0.53;;;20.40;62.50;;;;;;4871303;29;20336;-64
2022/07/02 07:31:16;;;;;;;0.50;0.50;;;20.40;62.70;;;;;;4847737;29;20277;-66
2022/07/02 07:33:41;;;;;;;1.23;0.90;;;20.40;60.90;;;;;;4863488;29;20196;-66
2022/07/02 07:36:07;;;;;;;0.60;0.60;;;20.50;61.00;;;;;;4847696;29;20192;-66
2022/07/02 07:38:33;;;;;;;1.90;0.70;;;20.60;59.30;;;;;;4879725;29;20222;-65
2022/07/02 07:40:58;;;;;;;2.80;0.77;;;20.60;58.90;;;;;;4855656;29;20212;-65
2022/07/02 07:43:24;;;;;;;1.13;0.90;;;20.70;58.50;;;;;;4857632;29;20208;-65
2022/07/02 07:45:50;;;;;;;1.70;0.60;;;20.80;55.10;;;;;;4855193;29;20204;-66
2022/07/02 07:48:15;;;;;;;0.60;0.60;;;20.80;55.50;;;;;;4865396;29;20196;-68
2022/07/02 07:50:41;;;;;;;0.83;0.70;;;20.80;57.00;;;;;;4878933;29;20256;-68
2022/07/02 07:53:07;;;;;;;1.93;0.60;;;20.80;54.60;;;;;;4863672;29;20242;-68
2022/07/02 07:55:32;;;;;;;0.70;0.70;;;20.80;57.70;;;;;;4866131;29;20287;-70
2022/07/02 07:57:58;;;;;;;2.50;0.80;;;20.80;58.30;;;;;;4866945;29;20218;-67
2022/07/02 08:00:24;;;;;;;0.97;0.70;;;20.80;55.30;;;;;;4853966;29;20191;-66
2022/07/02 08:02:49;;;;;;;2.00;0.70;;;20.90;56.30;;;;;;4864767;29;20215;-66
2022/07/02 08:05:15;;;;;;;2.13;0.77;;;21.00;55.70;;;;;;4879050;29;20203;-65
2022/07/02 08:07:41;;;;;;;2.10;0.70;;;21.10;56.10;;;;;;4861357;29;20196;-65
2022/07/02 08:10:10;;;;;;;2.20;0.90;;;21.20;55.40;;;;;;4859602;29;20262;-65
2022/07/02 08:12:36;;;;;;;0.80;0.80;;;21.30;55.40;;;;;;4856350;29;20199;-66
2022/07/02 08:15:03;;;;;;;1.77;0.83;;;21.30;56.40;;;;;;4890003;29;20193;-67
2022/07/02 08:17:29;;;;;;;0.83;0.83;;;21.40;56.50;;;;;;4874179;29;20188;-69
2022/07/02 08:19:56;;;;;;;3.03;0.87;;;21.50;55.20;;;;;;4870097;29;20256;-69
2022/07/02 08:22:22;;;;;;;0.60;0.60;;;21.50;55.90;;;;;;4866319;29;20197;-68
2022/07/02 08:24:47;;;;;;;0.70;0.70;;;21.50;57.60;;;;;;4857810;29;20224;-67
2022/07/02 08:27:13;;;;;;;0.60;0.60;;;21.50;58.80;;;;;;4868977;29;20251;-66
2022/07/02 08:29:39;;;;;;;1.03;0.60;;;21.50;55.00;;;;;;4856206;29;20229;-68
2022/07/02 08:32:05;;;;;;;1.13;0.83;;;21.60;54.70;;;;;;4879778;29;20196;-66
2022/07/02 08:34:32;;;;;;;0.97;0.70;;;21.70;53.80;;;;;;4880593;29;20184;-65
2022/07/02 08:36:58;;;;;;;2.80;0.67;;;21.80;53.90;;;;;;4865388;29;20200;-64
2022/07/02 08:39:24;;;;;;;2.10;0.70;;;21.80;50.50;;;;;;4864025;29;20203;-64
2022/07/02 08:41:52;;;;;;;0.70;0.70;;;21.80;49.60;;;;;;4873364;29;20189;-64
2022/07/02 08:44:24;;;;;;;0.90;0.70;;;21.80;51.80;;;;;;4894196;29;20198;-64
2022/07/02 08:46:50;;;;;;;0.70;0.60;;;21.90;53.50;;;;;;4879933;29;20191;-64
2022/07/02 08:49:20;;;;;;;2.20;0.80;;;22.00;54.80;;;;;;4867918;29;20287;-65
2022/07/02 08:52:07;;;;;;;1.60;0.60;;;22.00;55.70;;;;;;4853406;29;20310;-65
2022/07/02 08:54:34;;;;;;;1.00;0.90;;;22.00;55.60;;;;;;4868242;29;20206;-65
2022/07/02 08:57:01;;;;;;;1.63;0.60;;;22.00;54.90;;;;;;4883397;29;20196;-64
2022/07/02 08:59:31;;;;;;;0.80;0.67;;;22.20;52.80;;;;;;4899801;29;20213;-64
2022/07/02 09:01:58;;;;;;;2.33;0.87;;;22.20;55.30;;;;;;4884611;29;20202;-63
2022/07/02 09:04:25;;;;;;;0.80;0.70;;;22.20;54.20;;;;;;4866518;29;20191;-63
2022/07/02 09:06:57;;;;;;;0.93;0.80;;;22.20;55.20;;;;;;4866098;29;20196;-64
2022/07/02 09:09:25;;;;;;;2.00;0.90;;;22.30;55.20;;;;;;4876580;29;20243;-63
2022/07/02 09:11:51;;;;;;;0.80;0.80;;;22.50;53.90;;;;;;4867624;29;20238;-64
2022/07/02 09:14:18;;;;;;;0.70;0.70;;;22.50;56.10;;;;;;4879768;29;20195;-64
2022/07/02 09:16:45;;;;;;;1.13;0.93;;;22.50;56.20;;;;;;4865749;29;20284;-63
2022/07/02 09:19:11;;;;;;;1.13;0.90;;;22.60;56.40;;;;;;4857055;29;20200;-63
2022/07/02 09:21:48;;;;;;;0.90;0.90;;;22.60;57.40;;;;;;4867566;29;20196;-62
2022/07/02 09:24:14;;;;;;;1.37;1.10;;;22.70;54.10;;;;;;4872618;29;20205;-62
2022/07/02 09:26:40;;;;;;;2.43;0.80;;;22.80;55.40;;;;;;4844059;29;20331;-63
2022/07/02 09:29:05;;;;;;;2.20;0.80;;;22.90;55.60;;;;;;4857807;29;20200;-59
2022/07/02 09:31:32;;;;;;;0.73;0.70;;;23.00;50.30;;;;;;4876788;29;20287;-62
2022/07/02 09:33:59;;;;;;;1.00;0.80;;;23.00;51.40;;;;;;4856705;29;20204;-61
2022/07/02 09:36:25;;;;;;;1.27;1.00;;;23.00;52.40;;;;;;4870739;29;20217;-63
2022/07/02 09:38:53;;;;;;;0.97;0.70;;;23.00;52.80;;;;;;4873995;29;20184;-62
2022/07/02 09:41:23;;;;;;;0.60;0.60;;;23.00;53.20;;;;;;4881579;29;20228;-60
2022/07/02 09:43:59;;;;;;;0.60;0.60;;;23.10;54.20;;;;;;4873854;29;20678;-61
2022/07/02 09:46:25;;;;;;;1.10;1.00;;;23.20;53.90;;;;;;4866688;29;20206;-61
2022/07/02 09:48:51;;;;;;;1.10;0.93;;;23.30;52.70;;;;;;4859334;29;20204;-61
2022/07/02 09:51:18;;;;;;;1.63;0.60;;;23.30;48.50;;;;;;4877710;29;20252;-61
2022/07/02 09:53:54;;;;;;;1.97;0.80;;;23.40;49.30;;;;;;4868284;29;20189;-60
2022/07/02 09:56:22;;;;;;;2.40;0.60;;;23.40;47.80;;;;;;4872838;29;20291;-61
2022/07/02 09:58:48;;;;;;;1.57;0.70;;;23.40;48.50;;;;;;4854137;29;20199;-61
2022/07/02 10:01:21;;;;;;;1.40;0.70;;;23.50;49.20;;;;;;4880363;29;20232;-61
2022/07/02 10:03:56;;;;;;;1.23;0.73;;;23.60;50.40;;;;;;4857313;29;20224;-60
2022/07/02 10:06:22;;;;;;;0.80;0.80;;;23.70;51.50;;;;;;4860978;29;20262;-61
2022/07/02 10:08:48;;;;;;;1.30;0.77;;;23.70;51.20;;;;;;4857040;29;20295;-61
2022/07/02 10:11:15;;;;;;;0.67;0.60;;;23.70;51.10;;;;;;4847865;29;20319;-61
2022/07/02 10:13:42;;;;;;;0.73;0.73;;;23.70;49.30;;;;;;4865867;29;20192;-61
2022/07/02 10:16:17;;;;;;;0.80;0.80;;;23.70;49.90;;;;;;4873656;29;20184;-61
2022/07/02 10:18:43;;;;;;;0.60;0.60;;;23.90;49.60;;;;;;4894930;29;20211;-62
2022/07/02 10:21:14;;;;;;;1.00;0.63;;;24.00;51.40;;;;;;4870039;29;20207;-62
2022/07/02 10:23:44;;;;;;;1.57;0.97;;;24.20;51.30;;;;;;4864712;29;20188;-62
2022/07/02 10:26:13;;;;;;;0.90;0.73;;;24.20;50.90;;;;;;4898278;29;20429;-61
2022/07/02 10:28:39;;;;;;;1.57;0.90;;;24.30;49.90;;;;;;4876006;29;20243;-61
2022/07/02 10:31:08;;;;;;;2.00;0.93;;;24.30;51.00;;;;;;4858936;29;20235;-61
2022/07/02 10:34:02;;;;;;;0.63;0.60;;;24.40;51.50;;;;;;4879417;29;20244;-62
2022/07/02 10:36:27;;;;;;;1.83;0.70;;;24.50;53.70;;;;;;4875092;29;20187;-62
2022/07/02 10:38:58;;;;;;;0.90;0.70;;;24.60;53.00;;;;;;4867759;29;20188;-60
2022/07/02 10:41:25;;;;;;;2.00;0.70;;;24.60;51.50;;;;;;4898032;29;20195;-61
2022/07/02 10:43:56;;;;;;;2.17;0.80;;;24.50;49.40;;;;;;4876760;29;20291;-61
2022/07/02 10:46:26;;;;;;;0.60;0.60;;;24.70;47.10;;;;;;4881467;29;20204;-61
2022/07/02 10:48:55;;;;;;;1.07;1.00;;;24.70;46.30;;;;;;4861947;29;20199;-60
2022/07/02 10:51:35;;;;;;;1.10;0.77;;;24.70;47.50;;;;;;4869598;29;20291;-61
2022/07/02 10:54:09;;;;;;;0.80;0.80;;;24.80;48.30;;;;;;4878710;29;20220;-60
2022/07/02 10:56:49;;;;;;;0.80;0.80;;;24.90;50.10;;;;;;4869005;29;20216;-61
2022/07/02 10:59:34;;;;;;;2.10;0.70;;;24.90;49.90;;;;;;4878562;29;20184;-60
2022/07/02 11:02:01;;;;;;;0.60;0.60;;;25.00;49.50;;;;;;4875933;29;20226;-60
2022/07/02 11:04:27;;;;;;;3.73;1.10;;;25.00;50.90;;;;;;4899105;29;20187;-61
2022/07/02 11:07:13;;;;;;;1.13;0.83;;;25.10;53.70;;;;;;4881445;29;20244;-61
2022/07/02 11:09:49;;;;;;;1.97;0.80;;;25.20;50.50;;;;;;4880700;29;20180;-60
2022/07/02 11:12:21;;;;;;;0.73;0.73;;;25.20;50.80;;;;;;4865760;29;20207;-62
2022/07/02 11:14:57;;;;;;;2.23;1.03;;;25.20;51.00;;;;;;4882368;29;20192;-64
2022/07/02 11:17:24;;;;;;;2.40;0.87;;;25.40;51.90;;;;;;4865248;29;20207;-64
2022/07/02 11:19:56;;;;;;;1.00;0.90;;;25.60;50.70;;;;;;4877277;29;20196;-64
2022/07/02 11:22:22;;;;;;;1.00;0.90;;;25.70;49.60;;;;;;4876047;29;20192;-64
2022/07/02 11:24:52;;;;;;;1.20;0.97;;;25.90;48.60;;;;;;4855695;29;20184;-64
2022/07/02 11:27:18;;;;;;;1.87;1.10;;;25.80;48.70;;;;;;4876108;29;20223;-64
2022/07/02 11:29:56;;;;;;;1.67;1.00;;;25.80;46.30;;;;;;4859217;29;20203;-64
2022/07/02 11:32:21;;;;;;;0.80;0.80;;;25.90;50.90;;;;;;4859779;29;20217;-64
2022/07/02 11:34:57;;;;;;;1.00;0.90;;;26.00;53.60;;;;;;4879894;29;20180;-64
2022/07/02 11:37:23;;;;;;;1.50;0.93;;;26.00;52.30;;;;;;4874867;29;20183;-64
2022/07/02 11:39:49;;;;;;;1.57;1.00;;;26.30;51.50;;;;;;4890341;29;20220;-64
2022/07/02 11:42:15;;;;;;;1.73;1.00;;;26.30;51.20;;;;;;4877253;29;20215;-66
2022/07/02 11:44:40;;;;;;;1.00;0.90;;;26.70;49.90;;;;;;4870359;29;20184;-66
2022/07/02 11:47:06;;;;;;;1.20;1.10;;;26.90;50.30;;;;;;4867736;29;20196;-65
2022/07/02 11:49:34;;;;;;;1.07;0.90;;;27.20;48.60;;;;;;4856090;29;20191;-65
2022/07/02 11:52:00;;;;;;;1.40;0.83;;;27.30;46.00;;;;;;4868089;29;20216;-65
2022/07/02 11:54:26;;;;;;;0.97;0.90;;;27.30;49.00;;;;;;4876918;29;20208;-65
2022/07/02 11:56:53;;;;;;;1.10;1.00;;;27.60;51.40;;;;;;4858581;29;20185;-65
2022/07/02 11:59:20;;;;;;;2.03;0.83;;;27.90;50.60;;;;;;4875615;29;20192;-65
2022/07/02 12:01:48;;;;;;;1.40;1.10;;;28.20;48.30;;;;;;4855784;29;20199;-65
2022/07/02 12:04:19;;;;;;;1.07;0.93;;;28.30;45.50;;;;;;4858418;29;20229;-65
2022/07/02 12:06:48;;;;;;;1.93;0.90;;;28.70;47.50;;;;;;4872524;29;20213;-65
2022/07/02 12:09:16;;;;;;;0.83;0.83;;;29.10;46.20;;;;;;4878898;29;20192;-65
2022/07/02 12:11:44;;;;;;;1.20;1.10;;;29.60;46.90;;;;;;4878332;29;20212;-68
2022/07/02 12:14:12;;;;;;;1.27;1.00;;;30.20;45.20;;;;;;4863625;29;20187;-67
2022/07/02 12:16:39;;;;;;;1.50;0.90;;;30.80;46.20;;;;;;4848436;29;20196;-67
2022/07/02 12:19:10;;;;;;;1.17;1.07;;;31.50;41.60;;;;;;4878488;29;20243;-67
2022/07/02 12:21:45;;;;;;;1.27;0.87;;;31.80;40.80;;;;;;4857848;29;20309;-67
2022/07/02 12:24:21;;;;;;;1.03;0.80;;;32.50;40.10;;;;;;4854347;29;20187;-67
2022/07/02 12:26:53;;;;;;;4.33;0.93;;;33.20;37.70;;;;;;4867350;29;20240;-67
2022/07/02 12:32:11;;;;;;;1.73;0.90;;;34.40;37.60;;;;;;4896074;29;20267;-67
2022/07/02 12:34:38;;;;;;;0.80;0.80;;;34.80;35.50;;;;;;4839068;29;20199;-67
2022/07/02 12:37:04;;;;;;;0.80;0.80;;;35.30;36.10;;;;;;4872450;29;20201;-67
2022/07/02 12:39:43;;;;;;;2.27;1.00;;;35.30;35.00;;;;;;4863905;29;20263;-67
2022/07/02 12:42:16;;;;;;;2.33;0.80;;;35.50;35.80;;;;;;4880220;29;20196;-67
2022/07/02 12:44:53;;;;;;;0.77;0.77;;;35.80;32.90;;;;;;4875187;29;20219;-66
2022/07/02 12:47:39;;;;;;;0.80;0.70;;;36.10;33.40;;;;;;4852875;29;20203;-67
2022/07/02 12:50:14;;;;;;;1.30;0.80;;;36.40;32.90;;;;;;4874297;29;20219;-66
2022/07/02 12:52:51;;;;;;;3.93;0.90;;;36.00;34.10;;;;;;4885112;29;20188;-66
2022/07/02 12:55:28;;;;;;;1.53;0.80;;;36.20;32.40;;;;;;4864153;29;20184;-66
2022/07/02 12:57:57;;;;;;;1.23;0.93;;;36.00;32.40;;;;;;4866615;29;20199;-67